Time;durP1;ratioP1;P1;durP2;ratioP2;P2;SDS_P1;SDS_P2;PMS_P1;PMS_P2;Temp;Humidity;BMP_temperature;BMP_pressure;BME280_temperature;BME280_humidity;BME280_pressure;Samples;Min_cycle;Max_cycle;Signal;HPM_P1;HPM_P2
2023/09/23 00:01:22;;;;;;;0.63;0.20;;;14.80;84.00;;;;;;4975499;28;20100;-63
2023/09/23 00:03:47;;;;;;;0.25;0.20;;;14.80;84.10;;;;;;4975669;28;20362;-63
2023/09/23 00:06:13;;;;;;;1.35;0.30;;;14.80;84.10;;;;;;4972874;28;20038;-62
2023/09/23 00:08:41;;;;;;;0.30;0.30;;;14.80;84.20;;;;;;4974105;28;20050;-62
2023/09/23 00:11:10;;;;;;;0.50;0.32;;;14.80;84.20;;;;;;4971393;28;20106;-62
2023/09/23 00:13:35;;;;;;;1.10;0.32;;;14.80;84.20;;;;;;4976574;28;20529;-62
2023/09/23 00:16:16;;;;;;;0.40;0.40;;;14.70;84.10;;;;;;4975956;28;20039;-62
2023/09/23 00:18:45;;;;;;;0.40;0.40;;;14.70;84.40;;;;;;4974087;28;20520;-63
2023/09/23 00:21:12;;;;;;;0.50;0.40;;;14.70;84.30;;;;;;4976053;28;20505;-62
2023/09/23 00:23:38;;;;;;;0.65;0.30;;;14.70;84.60;;;;;;4976049;28;20031;-63
2023/09/23 00:26:04;;;;;;;0.32;0.32;;;14.60;84.80;;;;;;4976165;28;20541;-62
2023/09/23 00:28:30;;;;;;;0.30;0.30;;;14.60;85.00;;;;;;4975611;28;20034;-62
2023/09/23 00:31:14;;;;;;;0.30;0.30;;;14.60;85.00;;;;;;4976230;28;20034;-62
2023/09/23 00:33:44;;;;;;;0.57;0.30;;;14.60;85.50;;;;;;4975894;28;20042;-62
2023/09/23 00:36:10;;;;;;;0.50;0.47;;;14.60;85.30;;;;;;4975809;28;20022;-62
2023/09/23 00:38:36;;;;;;;0.60;0.30;;;14.60;85.20;;;;;;4976048;28;20410;-62
2023/09/23 00:41:08;;;;;;;0.88;0.40;;;14.60;85.20;;;;;;4976006;28;20081;-62
2023/09/23 00:43:34;;;;;;;0.75;0.40;;;14.60;85.20;;;;;;4976478;28;20069;-63
2023/09/23 00:46:06;;;;;;;0.50;0.43;;;14.60;85.20;;;;;;4977384;28;20533;-62
2023/09/23 00:48:39;;;;;;;3.70;0.47;;;14.60;85.30;;;;;;4975657;28;20213;-63
2023/09/23 00:51:09;;;;;;;1.60;0.57;;;14.60;85.60;;;;;;4976866;28;20090;-62
2023/09/23 00:53:36;;;;;;;0.63;0.35;;;14.60;85.40;;;;;;4976442;28;20520;-62
2023/09/23 00:56:03;;;;;;;0.40;0.40;;;14.60;85.50;;;;;;4975939;28;20121;-63
2023/09/23 00:58:29;;;;;;;0.47;0.47;;;14.70;85.70;;;;;;4976120;28;20034;-62
2023/09/23 01:00:56;;;;;;;2.40;0.55;;;14.60;85.70;;;;;;4969820;28;20030;-63
2023/09/23 01:03:21;;;;;;;2.10;0.60;;;14.70;85.80;;;;;;4974360;28;20039;-62
2023/09/23 01:05:58;;;;;;;1.65;0.70;;;14.70;85.90;;;;;;4975491;28;20599;-63
2023/09/23 01:08:25;;;;;;;1.92;0.50;;;14.70;85.90;;;;;;4977188;28;20547;-63
2023/09/23 01:10:51;;;;;;;0.73;0.70;;;14.70;85.90;;;;;;4974183;28;20120;-62
2023/09/23 01:13:22;;;;;;;0.82;0.70;;;14.70;85.90;;;;;;4971493;28;20038;-62
2023/09/23 01:15:48;;;;;;;1.23;0.80;;;14.70;85.90;;;;;;4976167;28;20121;-62
2023/09/23 01:18:14;;;;;;;0.88;0.70;;;14.70;85.90;;;;;;4977498;28;20042;-62
2023/09/23 01:20:44;;;;;;;1.30;0.80;;;14.70;85.90;;;;;;4976709;28;20031;-62
2023/09/23 01:23:10;;;;;;;0.70;0.60;;;14.70;86.00;;;;;;4978035;28;20525;-63
2023/09/23 01:25:36;;;;;;;0.82;0.52;;;14.80;85.90;;;;;;4978651;28;20150;-62
2023/09/23 01:28:04;;;;;;;1.70;0.68;;;14.70;85.90;;;;;;4979101;28;20565;-62
2023/09/23 01:30:31;;;;;;;1.35;0.63;;;14.70;85.90;;;;;;4978448;28;20414;-62
2023/09/23 01:32:57;;;;;;;1.45;0.70;;;14.70;85.90;;;;;;4978764;28;20027;-62
2023/09/23 01:35:22;;;;;;;1.90;0.90;;;14.70;85.90;;;;;;4978020;28;20054;-62
2023/09/23 01:37:50;;;;;;;1.35;0.82;;;14.70;85.90;;;;;;4978630;28;20023;-63
2023/09/23 01:40:18;;;;;;;0.85;0.85;;;14.70;86.00;;;;;;4977271;28;20031;-62
2023/09/23 01:42:46;;;;;;;1.25;0.80;;;14.70;85.90;;;;;;4977226;28;21214;-62
2023/09/23 01:45:13;;;;;;;1.65;0.80;;;14.70;85.90;;;;;;4977896;28;20031;-63
2023/09/23 01:47:42;;;;;;;0.75;0.75;;;14.70;86.00;;;;;;4978031;28;20046;-62
2023/09/23 01:50:11;;;;;;;1.27;0.90;;;14.70;86.00;;;;;;4977764;28;20078;-63
2023/09/23 01:52:37;;;;;;;1.13;0.98;;;14.70;86.20;;;;;;4978739;28;20042;-62
2023/09/23 01:55:05;;;;;;;1.73;0.80;;;14.70;86.20;;;;;;4978650;28;20038;-62
2023/09/23 01:57:33;;;;;;;1.45;0.85;;;14.70;86.40;;;;;;4977459;28;20043;-63
2023/09/23 01:59:59;;;;;;;1.15;0.88;;;14.70;86.30;;;;;;4977213;28;20038;-62
2023/09/23 02:02:26;;;;;;;1.40;0.75;;;14.70;86.30;;;;;;4977901;28;20224;-63
2023/09/23 02:04:52;;;;;;;1.75;1.00;;;14.70;86.30;;;;;;4977419;28;20049;-62
2023/09/23 02:07:18;;;;;;;1.63;1.00;;;14.70;86.30;;;;;;4977570;28;20039;-62
2023/09/23 02:09:45;;;;;;;1.90;0.98;;;14.70;86.40;;;;;;4977228;28;20047;-62
2023/09/23 02:12:12;;;;;;;0.93;0.88;;;14.70;86.30;;;;;;4974012;28;20082;-63
2023/09/23 02:14:43;;;;;;;2.50;1.15;;;14.70;86.40;;;;;;4972990;28;20042;-62
2023/09/23 02:17:08;;;;;;;1.20;1.10;;;14.70;86.30;;;;;;4977961;28;20089;-62
2023/09/23 02:19:34;;;;;;;2.65;1.30;;;14.70;86.40;;;;;;4975066;28;20046;-62
2023/09/23 02:22:05;;;;;;;1.40;1.30;;;14.70;86.30;;;;;;4972938;28;20047;-62
2023/09/23 02:24:36;;;;;;;6.10;1.17;;;14.70;86.20;;;;;;4975284;28;20039;-63
2023/09/23 02:27:03;;;;;;;2.47;1.40;;;14.70;86.30;;;;;;4975155;28;20069;-62
2023/09/23 02:29:30;;;;;;;1.73;1.23;;;14.70;86.30;;;;;;4977384;28;20065;-62
2023/09/23 02:31:56;;;;;;;2.78;1.50;;;14.70;86.30;;;;;;4977924;28;20506;-62
2023/09/23 02:34:22;;;;;;;1.67;1.20;;;14.60;86.20;;;;;;4977594;28;20150;-62
2023/09/23 02:36:51;;;;;;;2.38;1.40;;;14.70;86.30;;;;;;4976508;28;20137;-62
2023/09/23 02:39:19;;;;;;;2.38;1.40;;;14.70;86.20;;;;;;4976971;28;20047;-62
2023/09/23 02:41:49;;;;;;;1.95;1.45;;;14.70;86.00;;;;;;4977795;28;20505;-62
2023/09/23 02:44:18;;;;;;;1.38;1.27;;;14.60;85.80;;;;;;4975439;28;20134;-62
2023/09/23 02:46:48;;;;;;;2.70;1.33;;;14.60;85.60;;;;;;4976210;28;20047;-63
2023/09/23 02:49:16;;;;;;;1.30;1.05;;;14.60;85.70;;;;;;4976758;28;20076;-62
2023/09/23 02:51:45;;;;;;;1.85;0.90;;;14.70;85.80;;;;;;4977604;28;20039;-63
2023/09/23 02:54:18;;;;;;;2.33;0.93;;;14.60;85.60;;;;;;4976322;28;20050;-62
2023/09/23 02:56:47;;;;;;;1.02;0.93;;;14.70;85.60;;;;;;4975529;28;20065;-63
2023/09/23 02:59:15;;;;;;;1.05;0.90;;;14.70;85.50;;;;;;4976941;28;20415;-62
2023/09/23 03:01:45;;;;;;;2.00;0.80;;;14.70;85.30;;;;;;4976985;28;20044;-62
2023/09/23 03:04:19;;;;;;;1.48;0.70;;;14.70;85.10;;;;;;4975432;28;20113;-62
2023/09/23 03:06:50;;;;;;;1.30;0.90;;;14.70;85.00;;;;;;4975639;28;20051;-63
2023/09/23 03:09:24;;;;;;;1.08;0.98;;;14.60;84.90;;;;;;4975559;28;20141;-62
2023/09/23 03:11:55;;;;;;;1.83;1.05;;;14.60;85.30;;;;;;4975287;28;20062;-62
2023/09/23 03:14:28;;;;;;;1.73;0.98;;;14.70;85.00;;;;;;4977310;28;20122;-63
2023/09/23 03:16:57;;;;;;;1.13;0.85;;;14.70;85.00;;;;;;4975492;28;20117;-63
2023/09/23 03:19:25;;;;;;;1.95;1.08;;;14.70;85.00;;;;;;4975969;28;20038;-62
2023/09/23 03:21:57;;;;;;;1.90;0.90;;;14.70;85.10;;;;;;4976594;28;20030;-62
2023/09/23 03:24:31;;;;;;;1.10;1.00;;;14.70;85.00;;;;;;4969789;28;20054;-62
2023/09/23 03:26:59;;;;;;;1.33;1.00;;;14.70;85.00;;;;;;4975197;28;20035;-62
2023/09/23 03:29:29;;;;;;;1.83;1.05;;;14.70;85.00;;;;;;4976547;28;20043;-62
2023/09/23 03:31:58;;;;;;;1.15;1.02;;;14.70;85.00;;;;;;4975297;28;20108;-62
2023/09/23 03:34:26;;;;;;;1.30;1.20;;;14.70;85.00;;;;;;4975881;28;20061;-62
2023/09/23 03:36:53;;;;;;;1.35;1.20;;;14.70;85.00;;;;;;4975594;28;20045;-62
2023/09/23 03:39:19;;;;;;;1.55;1.30;;;14.70;84.80;;;;;;4976971;28;20053;-62
2023/09/23 03:41:46;;;;;;;1.77;1.05;;;14.70;84.70;;;;;;4975479;28;20121;-62
2023/09/23 03:44:14;;;;;;;1.67;1.02;;;14.70;84.80;;;;;;4975494;28;20038;-62
2023/09/23 03:46:41;;;;;;;2.58;1.17;;;14.70;84.80;;;;;;4974411;28;20038;-62
2023/09/23 03:49:06;;;;;;;1.45;1.00;;;14.70;84.70;;;;;;4977391;28;20057;-62
2023/09/23 03:51:33;;;;;;;1.60;0.90;;;14.70;84.50;;;;;;4975401;28;20530;-62
2023/09/23 03:53:59;;;;;;;2.70;1.20;;;14.70;84.50;;;;;;4975975;28;20058;-62
2023/09/23 03:56:27;;;;;;;1.75;0.77;;;14.60;84.20;;;;;;4975957;28;20093;-62
2023/09/23 03:58:55;;;;;;;1.00;0.90;;;14.60;84.10;;;;;;4975916;28;20042;-62
2023/09/23 04:01:23;;;;;;;1.73;1.10;;;14.70;83.80;;;;;;4976640;28;20062;-62
2023/09/23 04:03:51;;;;;;;0.70;0.70;;;14.60;83.60;;;;;;4975982;28;20047;-62
2023/09/23 04:06:17;;;;;;;1.48;1.00;;;14.60;83.50;;;;;;4975977;28;20048;-62
2023/09/23 04:08:43;;;;;;;0.80;0.60;;;14.60;83.40;;;;;;4974522;28;20030;-62
2023/09/23 04:11:10;;;;;;;1.63;0.68;;;14.50;83.20;;;;;;4972686;28;20041;-62
2023/09/23 04:13:38;;;;;;;0.73;0.70;;;14.50;83.10;;;;;;4975881;28;20045;-62
2023/09/23 04:16:05;;;;;;;1.77;0.70;;;14.40;82.90;;;;;;4975686;28;20081;-62
2023/09/23 04:18:31;;;;;;;0.73;0.60;;;14.40;82.90;;;;;;4975188;28;20070;-62
2023/09/23 04:20:59;;;;;;;1.00;0.70;;;14.40;82.90;;;;;;4975158;28;20328;-62
2023/09/23 04:23:24;;;;;;;0.93;0.65;;;14.40;83.00;;;;;;4974399;28;20402;-62
2023/09/23 04:25:50;;;;;;;0.90;0.70;;;14.40;83.00;;;;;;4974658;28;20030;-62
2023/09/23 04:28:16;;;;;;;1.70;0.88;;;14.40;82.90;;;;;;4974912;28;20105;-62
2023/09/23 04:30:42;;;;;;;0.70;0.60;;;14.30;82.70;;;;;;4973074;28;20505;-62
2023/09/23 04:33:08;;;;;;;0.82;0.50;;;14.30;82.70;;;;;;4974695;28;20053;-61
2023/09/23 04:35:37;;;;;;;1.20;0.52;;;14.30;82.90;;;;;;4976351;28;20054;-62
2023/09/23 04:38:03;;;;;;;2.15;0.80;;;14.20;82.80;;;;;;4975396;28;20038;-62
2023/09/23 04:40:28;;;;;;;1.60;0.90;;;14.20;82.90;;;;;;4974781;28;20035;-62
2023/09/23 04:42:54;;;;;;;2.17;0.63;;;14.20;82.90;;;;;;4975892;28;20117;-62
2023/09/23 04:45:20;;;;;;;1.02;0.70;;;14.20;82.90;;;;;;4978647;28;20035;-62
2023/09/23 04:47:50;;;;;;;0.90;0.65;;;14.20;82.90;;;;;;4978409;28;20050;-62
2023/09/23 04:50:23;;;;;;;1.30;0.60;;;14.20;83.00;;;;;;4979759;28;20035;-62
2023/09/23 04:52:50;;;;;;;1.52;0.75;;;14.20;82.90;;;;;;4978179;28;20046;-62
2023/09/23 04:55:16;;;;;;;0.80;0.60;;;14.20;82.90;;;;;;4978458;28;20038;-62
2023/09/23 04:57:42;;;;;;;0.60;0.60;;;14.20;83.00;;;;;;4979652;28;20031;-62
2023/09/23 05:00:13;;;;;;;0.68;0.63;;;14.10;83.00;;;;;;4979367;28;20118;-61
2023/09/23 05:02:39;;;;;;;2.03;0.50;;;14.10;82.90;;;;;;4978086;28;20142;-62
2023/09/23 05:05:05;;;;;;;0.65;0.50;;;14.10;82.90;;;;;;4979317;28;20558;-62
2023/09/23 05:07:30;;;;;;;1.15;0.70;;;14.10;83.00;;;;;;4979211;28;20109;-62
2023/09/23 05:09:56;;;;;;;2.38;0.70;;;14.10;82.90;;;;;;4978452;28;20034;-61
2023/09/23 05:12:23;;;;;;;0.63;0.63;;;14.10;82.70;;;;;;4975598;28;20390;-62
2023/09/23 05:14:49;;;;;;;0.63;0.50;;;14.10;82.40;;;;;;4977298;28;20039;-62
2023/09/23 05:17:15;;;;;;;0.75;0.60;;;14.10;82.40;;;;;;4978196;28;20053;-62
2023/09/23 05:19:47;;;;;;;1.98;0.60;;;14.10;82.30;;;;;;4977583;28;20130;-62
2023/09/23 05:22:13;;;;;;;1.00;0.65;;;14.10;82.20;;;;;;4978706;28;20137;-62
2023/09/23 05:24:39;;;;;;;0.60;0.50;;;14.10;82.20;;;;;;4978573;28;20716;-62
2023/09/23 05:27:05;;;;;;;1.10;0.85;;;14.10;82.30;;;;;;4976600;28;20038;-62
2023/09/23 05:29:31;;;;;;;2.83;0.90;;;14.10;82.30;;;;;;4977358;28;20031;-62
2023/09/23 05:31:57;;;;;;;0.90;0.77;;;14.10;82.30;;;;;;4972263;28;20030;-62
2023/09/23 05:34:22;;;;;;;1.23;0.68;;;14.00;82.40;;;;;;4973156;28;20077;-62
2023/09/23 05:36:48;;;;;;;1.58;0.98;;;14.10;82.40;;;;;;4977784;28;20062;-62
2023/09/23 05:39:19;;;;;;;1.05;0.90;;;14.00;82.30;;;;;;4977643;28;20078;-62
2023/09/23 05:41:49;;;;;;;1.08;0.70;;;14.00;82.20;;;;;;4978020;28;20534;-62
2023/09/23 05:44:18;;;;;;;1.15;0.85;;;14.00;82.20;;;;;;4977561;28;20046;-62
2023/09/23 05:46:44;;;;;;;1.50;0.90;;;14.10;82.40;;;;;;4977434;28;20680;-63
2023/09/23 05:49:12;;;;;;;1.05;0.77;;;14.00;82.40;;;;;;4976788;28;20125;-62
2023/09/23 05:51:38;;;;;;;0.85;0.85;;;14.00;82.50;;;;;;4979613;28;20039;-62
2023/09/23 05:54:04;;;;;;;1.23;0.70;;;14.00;82.30;;;;;;4977337;28;20557;-62
2023/09/23 05:56:30;;;;;;;0.93;0.80;;;14.00;82.40;;;;;;4977975;28;20121;-62
2023/09/23 05:58:55;;;;;;;0.80;0.70;;;14.00;82.40;;;;;;4977913;28;20041;-61
2023/09/23 06:01:21;;;;;;;0.90;0.60;;;14.00;82.20;;;;;;4977830;28;20429;-62
2023/09/23 06:03:48;;;;;;;0.60;0.55;;;14.10;82.10;;;;;;4977852;28;20387;-62
2023/09/23 06:06:14;;;;;;;2.58;0.60;;;14.10;82.10;;;;;;4978829;28;20536;-62
2023/09/23 06:08:39;;;;;;;1.10;0.40;;;14.10;82.20;;;;;;4978669;28;20041;-62
2023/09/23 06:11:05;;;;;;;0.60;0.50;;;14.10;82.00;;;;;;4976444;28;20031;-62
2023/09/23 06:13:36;;;;;;;0.60;0.50;;;14.10;81.90;;;;;;4979025;28;20521;-62
2023/09/23 06:16:05;;;;;;;2.47;0.60;;;14.10;81.90;;;;;;4977490;28;20433;-61
2023/09/23 06:18:33;;;;;;;1.33;0.70;;;14.10;82.00;;;;;;4977169;28;20031;-63
2023/09/23 06:21:04;;;;;;;1.23;0.50;;;14.00;82.20;;;;;;4977150;28;20035;-62
2023/09/23 06:23:31;;;;;;;0.88;0.40;;;14.00;83.20;;;;;;4977102;28;20030;-62
2023/09/23 06:26:04;;;;;;;0.80;0.70;;;14.00;82.40;;;;;;4977699;28;20034;-61
2023/09/23 06:28:30;;;;;;;1.70;0.63;;;14.10;82.40;;;;;;4975930;28;20031;-62
2023/09/23 06:30:55;;;;;;;0.57;0.50;;;14.10;82.30;;;;;;4978168;28;20038;-62
2023/09/23 06:33:21;;;;;;;1.20;0.50;;;14.10;82.30;;;;;;4978558;28;20059;-62
2023/09/23 06:35:48;;;;;;;0.65;0.50;;;14.10;82.20;;;;;;4972054;28;20042;-62
2023/09/23 06:38:13;;;;;;;1.17;0.60;;;14.10;82.10;;;;;;4971695;28;20039;-62
2023/09/23 06:40:39;;;;;;;1.15;0.60;;;14.10;82.20;;;;;;4971152;28;20138;-62
2023/09/23 06:43:05;;;;;;;2.47;0.80;;;14.10;82.00;;;;;;4977817;28;20035;-62
2023/09/23 06:45:31;;;;;;;1.50;0.77;;;14.10;82.00;;;;;;4975559;28;20269;-62
2023/09/23 06:47:56;;;;;;;0.50;0.50;;;14.20;82.00;;;;;;4960686;28;20399;-62
2023/09/23 06:50:22;;;;;;;0.55;0.50;;;14.10;82.00;;;;;;4972313;28;20126;-62
2023/09/23 06:52:48;;;;;;;1.50;0.77;;;14.20;81.90;;;;;;4964681;28;20490;-63
2023/09/23 06:55:13;;;;;;;0.80;0.50;;;14.10;81.80;;;;;;4968076;28;20085;-63
2023/09/23 06:57:39;;;;;;;0.65;0.50;;;14.20;81.90;;;;;;4970528;28;20395;-62
2023/09/23 07:00:06;;;;;;;0.82;0.80;;;14.20;82.00;;;;;;4945160;28;20059;-62
2023/09/23 07:02:32;;;;;;;1.60;0.70;;;14.20;82.00;;;;;;4944503;28;20074;-62
2023/09/23 07:04:58;;;;;;;1.30;0.57;;;14.20;81.90;;;;;;4953955;28;20039;-61
2023/09/23 07:07:23;;;;;;;0.50;0.50;;;14.30;81.90;;;;;;4938643;28;20097;-62
2023/09/23 07:09:49;;;;;;;0.60;0.50;;;14.20;81.90;;;;;;4957383;28;20035;-62
2023/09/23 07:12:15;;;;;;;1.33;0.60;;;14.30;81.90;;;;;;4946634;28;20302;-62
2023/09/23 07:14:41;;;;;;;1.48;0.77;;;14.30;81.90;;;;;;4954764;28;20419;-62
2023/09/23 07:17:07;;;;;;;0.90;0.90;;;14.30;82.00;;;;;;4950295;28;20632;-62
2023/09/23 07:19:33;;;;;;;1.98;0.90;;;14.30;82.20;;;;;;4954310;28;20578;-62
2023/09/23 07:21:59;;;;;;;0.98;0.75;;;14.30;82.30;;;;;;4951267;28;20439;-62
2023/09/23 07:24:26;;;;;;;1.95;1.00;;;14.40;82.60;;;;;;4951711;28;20034;-62
2023/09/23 07:26:55;;;;;;;1.23;1.00;;;14.30;82.40;;;;;;4950579;28;20054;-61
2023/09/23 07:29:21;;;;;;;2.92;1.00;;;14.30;82.30;;;;;;4948040;28;20042;-62
2023/09/23 07:31:47;;;;;;;1.98;1.33;;;14.40;82.40;;;;;;4948944;28;20055;-62
2023/09/23 07:34:12;;;;;;;1.58;1.08;;;14.30;82.50;;;;;;4950817;28;20035;-62
2023/09/23 07:36:38;;;;;;;1.10;0.73;;;14.30;82.70;;;;;;4950130;28;20152;-63
2023/09/23 07:39:03;;;;;;;3.47;0.85;;;14.30;83.80;;;;;;4955514;28;20039;-62
2023/09/23 07:41:29;;;;;;;1.15;0.70;;;14.30;83.10;;;;;;4949897;28;20600;-62
2023/09/23 07:43:57;;;;;;;1.35;0.75;;;14.40;83.10;;;;;;4953031;28;20122;-62
2023/09/23 07:46:22;;;;;;;3.08;0.90;;;14.40;83.00;;;;;;4951994;28;20122;-62
2023/09/23 07:48:48;;;;;;;1.20;0.80;;;14.40;83.10;;;;;;4955842;28;20562;-62
2023/09/23 07:51:13;;;;;;;1.00;0.60;;;14.40;83.30;;;;;;4954703;28;20035;-62
2023/09/23 07:53:39;;;;;;;2.80;0.93;;;14.40;83.40;;;;;;4951987;28;20035;-62
2023/09/23 07:56:05;;;;;;;1.42;0.82;;;14.50;83.60;;;;;;4952427;28;20035;-62
2023/09/23 07:58:31;;;;;;;1.35;0.73;;;14.50;83.60;;;;;;4955615;28;20142;-62
2023/09/23 08:00:57;;;;;;;0.95;0.85;;;14.60;83.60;;;;;;4969632;28;20110;-62
2023/09/23 08:03:26;;;;;;;1.20;0.60;;;14.60;83.50;;;;;;4954889;28;20043;-61
2023/09/23 08:05:52;;;;;;;1.25;0.40;;;14.70;83.30;;;;;;4954724;28;20499;-62
2023/09/23 08:08:18;;;;;;;0.52;0.52;;;14.70;83.10;;;;;;4952435;28;20518;-62
2023/09/23 08:10:44;;;;;;;0.75;0.65;;;14.80;83.10;;;;;;4950679;28;20039;-62
2023/09/23 08:13:09;;;;;;;1.95;0.70;;;14.80;83.00;;;;;;4952704;28;20036;-61
2023/09/23 08:15:35;;;;;;;2.13;0.70;;;15.00;82.90;;;;;;4952774;28;20036;-62
2023/09/23 08:18:01;;;;;;;1.27;0.60;;;15.00;82.60;;;;;;4957159;28;20035;-60
2023/09/23 08:20:26;;;;;;;0.98;0.60;;;15.00;82.60;;;;;;4957179;28;20093;-62
2023/09/23 08:22:53;;;;;;;1.13;0.80;;;15.10;82.60;;;;;;4958873;28;20043;-62
2023/09/23 08:25:19;;;;;;;0.88;0.50;;;15.20;82.60;;;;;;4956497;28;20043;-62
2023/09/23 08:27:45;;;;;;;0.90;0.60;;;15.20;82.30;;;;;;4949910;28;20438;-62
2023/09/23 08:30:12;;;;;;;1.73;0.50;;;15.30;81.60;;;;;;4951997;28;20130;-63
2023/09/23 08:32:39;;;;;;;1.70;0.50;;;15.40;81.20;;;;;;4955270;28;20046;-63
2023/09/23 08:35:06;;;;;;;1.13;0.43;;;15.50;80.50;;;;;;4957353;28;20035;-62
2023/09/23 08:37:32;;;;;;;0.88;0.60;;;15.50;80.10;;;;;;4956821;28;20101;-63
2023/09/23 08:39:58;;;;;;;0.95;0.50;;;15.50;79.90;;;;;;4956720;28;20039;-61
2023/09/23 08:42:27;;;;;;;0.70;0.45;;;15.60;79.80;;;;;;4952366;28;20609;-62
2023/09/23 08:44:53;;;;;;;1.65;0.50;;;15.70;79.40;;;;;;4951529;28;20046;-62
2023/09/23 08:47:20;;;;;;;1.05;0.40;;;15.70;80.10;;;;;;4950932;28;20039;-62
2023/09/23 08:49:49;;;;;;;0.85;0.40;;;15.80;79.10;;;;;;4958173;28;20035;-62
2023/09/23 08:52:18;;;;;;;0.80;0.55;;;15.90;78.90;;;;;;4959168;28;20043;-62
2023/09/23 08:54:48;;;;;;;0.40;0.30;;;15.90;78.70;;;;;;4952377;28;20051;-62
2023/09/23 08:57:16;;;;;;;1.02;0.40;;;16.00;78.50;;;;;;4950834;28;20041;-62
2023/09/23 08:59:42;;;;;;;2.28;0.40;;;16.10;78.70;;;;;;4954343;28;20042;-61
2023/09/23 09:02:08;;;;;;;1.02;0.50;;;16.10;78.30;;;;;;4954065;28;20038;-61
2023/09/23 09:04:34;;;;;;;0.47;0.40;;;16.20;78.00;;;;;;4953460;28;20035;-62
2023/09/23 09:06:59;;;;;;;0.95;0.40;;;16.30;78.00;;;;;;4952409;28;20562;-61
2023/09/23 09:09:25;;;;;;;0.77;0.40;;;16.30;77.00;;;;;;4958158;28;20046;-63
2023/09/23 09:11:53;;;;;;;0.73;0.47;;;16.40;76.40;;;;;;4954543;28;20041;-63
2023/09/23 09:14:20;;;;;;;1.13;0.50;;;16.50;75.40;;;;;;4968821;28;20051;-62
2023/09/23 09:16:45;;;;;;;1.58;0.57;;;16.50;75.00;;;;;;4959460;28;20047;-62
2023/09/23 09:19:11;;;;;;;1.13;0.30;;;16.50;73.70;;;;;;4958776;28;20035;-62
2023/09/23 09:21:37;;;;;;;0.63;0.40;;;16.60;73.80;;;;;;4960244;28;20041;-62
2023/09/23 09:24:04;;;;;;;0.40;0.30;;;16.60;73.70;;;;;;4957278;28;20477;-62
2023/09/23 09:26:35;;;;;;;1.42;0.50;;;16.60;73.20;;;;;;4958995;28;20090;-62
2023/09/23 09:29:02;;;;;;;1.52;0.52;;;16.70;72.60;;;;;;4957945;28;20427;-62
2023/09/23 09:31:33;;;;;;;0.52;0.40;;;16.70;71.40;;;;;;4959393;28;20065;-61
2023/09/23 09:34:04;;;;;;;0.82;0.32;;;16.70;71.10;;;;;;4959498;28;20050;-62
2023/09/23 09:36:34;;;;;;;1.63;0.45;;;16.70;71.80;;;;;;4958247;28;20043;-62
2023/09/23 09:39:01;;;;;;;1.17;0.30;;;16.70;72.10;;;;;;4959814;28;20063;-62
2023/09/23 09:41:46;;;;;;;5.88;0.60;;;16.80;72.30;;;;;;4959102;28;20102;-62
2023/09/23 09:44:20;;;;;;;0.73;0.60;;;16.80;70.80;;;;;;4959732;28;20105;-62
2023/09/23 09:46:48;;;;;;;1.15;0.60;;;16.80;71.70;;;;;;4957287;28;20399;-62
2023/09/23 09:49:17;;;;;;;1.60;0.65;;;16.90;71.40;;;;;;4959336;28;20042;-63
2023/09/23 09:51:48;;;;;;;1.55;0.80;;;16.90;71.60;;;;;;4959110;28;20043;-62
2023/09/23 09:54:18;;;;;;;1.75;0.70;;;16.90;72.00;;;;;;4958471;28;20434;-62
2023/09/23 09:56:44;;;;;;;1.52;0.57;;;17.00;72.30;;;;;;4957817;28;20093;-61
2023/09/23 09:59:09;;;;;;;1.33;0.50;;;17.10;72.10;;;;;;4958273;28;20050;-62
2023/09/23 10:01:35;;;;;;;1.02;0.50;;;17.20;72.10;;;;;;4956222;28;20035;-62
2023/09/23 10:04:09;;;;;;;0.73;0.55;;;17.30;72.80;;;;;;4956548;28;20090;-61
2023/09/23 10:06:39;;;;;;;0.55;0.40;;;17.40;70.20;;;;;;4954349;28;20039;-61
2023/09/23 10:09:14;;;;;;;0.65;0.52;;;17.40;69.00;;;;;;4960043;28;20035;-62
2023/09/23 10:11:40;;;;;;;0.75;0.43;;;17.40;69.50;;;;;;4955131;28;20114;-62
2023/09/23 10:14:16;;;;;;;1.67;0.68;;;17.50;69.90;;;;;;4957121;28;20046;-62
2023/09/23 10:16:48;;;;;;;0.85;0.50;;;17.50;68.60;;;;;;4958654;28;20031;-61
2023/09/23 10:19:15;;;;;;;0.70;0.40;;;17.50;68.10;;;;;;4957338;28;20035;-62
2023/09/23 10:21:44;;;;;;;0.93;0.50;;;17.50;69.00;;;;;;4956193;28;20042;-61
2023/09/23 10:24:18;;;;;;;1.02;0.40;;;17.60;69.00;;;;;;4959707;28;20127;-61
2023/09/23 10:26:44;;;;;;;0.90;0.35;;;17.60;69.10;;;;;;4959705;28;20097;-60
2023/09/23 10:29:10;;;;;;;0.70;0.40;;;17.60;68.80;;;;;;4960328;28;20035;-62
2023/09/23 10:31:37;;;;;;;0.98;0.30;;;17.70;68.20;;;;;;4961708;28;20046;-60
2023/09/23 10:34:06;;;;;;;1.70;0.60;;;17.70;68.20;;;;;;4960540;28;20055;-62
2023/09/23 10:36:33;;;;;;;2.17;0.73;;;17.80;67.40;;;;;;4960623;28;20043;-62
2023/09/23 10:38:59;;;;;;;0.60;0.40;;;17.70;66.50;;;;;;4960289;28;20130;-62
2023/09/23 10:41:36;;;;;;;1.33;0.70;;;17.80;67.10;;;;;;4961745;28;20040;-61
2023/09/23 10:44:05;;;;;;;1.23;0.40;;;17.80;65.90;;;;;;4956124;28;20047;-60
2023/09/23 10:46:31;;;;;;;0.98;0.50;;;17.80;66.20;;;;;;4959334;28;20043;-62
2023/09/23 10:48:57;;;;;;;1.08;0.55;;;17.80;66.80;;;;;;4956504;28;20039;-62
2023/09/23 10:51:22;;;;;;;0.70;0.30;;;17.80;66.00;;;;;;4957499;28;20031;-62
2023/09/23 10:53:51;;;;;;;1.02;0.40;;;17.70;65.60;;;;;;4957059;28;20051;-63
2023/09/23 10:56:21;;;;;;;2.17;0.80;;;17.70;65.90;;;;;;4956415;28;20078;-62
2023/09/23 10:58:50;;;;;;;1.48;0.40;;;17.60;65.70;;;;;;4956982;28;20402;-62
2023/09/23 11:01:18;;;;;;;0.80;0.40;;;17.60;66.20;;;;;;4957541;28;20043;-62
2023/09/23 11:03:45;;;;;;;1.05;0.50;;;17.60;66.10;;;;;;4958114;28;20043;-62
2023/09/23 11:06:10;;;;;;;0.40;0.30;;;17.60;66.00;;;;;;4958462;28;20027;-62
2023/09/23 11:08:37;;;;;;;0.90;0.30;;;17.60;66.40;;;;;;4956567;28;20035;-62
2023/09/23 11:11:02;;;;;;;0.93;0.40;;;17.60;66.10;;;;;;4957121;28;20525;-63
2023/09/23 11:13:31;;;;;;;1.10;0.40;;;17.60;65.90;;;;;;4956959;28;20043;-62
2023/09/23 11:15:56;;;;;;;2.00;0.40;;;17.60;65.60;;;;;;4956466;28;20050;-61
2023/09/23 11:18:22;;;;;;;0.77;0.40;;;17.70;64.70;;;;;;4957516;28;20498;-62
2023/09/23 11:20:48;;;;;;;0.77;0.40;;;17.60;63.60;;;;;;4957534;28;20032;-62
2023/09/23 11:23:14;;;;;;;1.13;0.40;;;17.60;64.40;;;;;;4958280;28;20035;-62
2023/09/23 11:25:46;;;;;;;1.52;0.40;;;17.60;64.20;;;;;;4956076;28;20027;-62
2023/09/23 11:28:20;;;;;;;1.40;0.40;;;17.60;64.80;;;;;;4957359;28;20039;-62
2023/09/23 11:30:46;;;;;;;1.63;0.35;;;17.60;64.60;;;;;;4956085;28;20091;-62
2023/09/23 11:33:12;;;;;;;0.82;0.40;;;17.60;64.40;;;;;;4957178;28;20035;-62
2023/09/23 11:35:39;;;;;;;1.55;0.40;;;17.60;64.20;;;;;;4958278;28;20474;-62
2023/09/23 11:38:04;;;;;;;0.38;0.30;;;17.70;64.50;;;;;;4956287;28;20031;-62
2023/09/23 11:40:34;;;;;;;1.17;0.43;;;17.70;64.50;;;;;;4956756;28;20419;-63
2023/09/23 11:43:00;;;;;;;1.45;0.32;;;17.70;64.40;;;;;;4955526;28;20517;-62
2023/09/23 11:45:26;;;;;;;0.73;0.50;;;17.80;64.40;;;;;;4955115;28;20027;-63
2023/09/23 11:47:51;;;;;;;1.40;0.50;;;17.90;64.10;;;;;;4956052;28;20031;-62
2023/09/23 11:50:17;;;;;;;1.10;0.30;;;17.80;64.00;;;;;;4956516;28;20062;-60
2023/09/23 11:52:43;;;;;;;1.35;0.40;;;17.80;63.30;;;;;;4955464;28;20046;-61
2023/09/23 11:55:12;;;;;;;2.35;0.40;;;17.90;63.80;;;;;;4954135;28;20042;-62
2023/09/23 11:57:40;;;;;;;1.15;0.45;;;17.90;64.10;;;;;;4957394;28;20039;-63
2023/09/23 12:00:09;;;;;;;0.43;0.40;;;18.00;63.60;;;;;;4954259;28;20108;-62
2023/09/23 12:02:42;;;;;;;0.90;0.40;;;18.00;63.30;;;;;;4956009;28;20070;-62
2023/09/23 12:05:16;;;;;;;0.50;0.40;;;18.00;62.70;;;;;;4946504;28;20134;-63
2023/09/23 12:07:42;;;;;;;0.77;0.30;;;18.10;63.00;;;;;;4955088;28;20379;-63
2023/09/23 12:10:09;;;;;;;1.13;0.50;;;18.10;63.20;;;;;;4955370;28;20098;-63
2023/09/23 12:12:35;;;;;;;1.02;0.40;;;18.20;63.30;;;;;;4950228;28;20045;-63
2023/09/23 12:15:01;;;;;;;1.48;0.30;;;18.30;63.00;;;;;;4954647;28;20035;-63
2023/09/23 12:17:27;;;;;;;0.47;0.40;;;18.30;63.10;;;;;;4954790;28;20043;-63
2023/09/23 12:19:52;;;;;;;0.65;0.20;;;18.40;62.60;;;;;;4955499;28;20039;-63
2023/09/23 12:22:20;;;;;;;1.05;0.40;;;18.50;62.60;;;;;;4951919;28;20580;-63
2023/09/23 12:24:46;;;;;;;2.22;0.40;;;18.50;62.50;;;;;;4951650;28;20137;-63
2023/09/23 12:27:12;;;;;;;0.40;0.35;;;18.60;62.20;;;;;;4955728;28;20114;-63
2023/09/23 12:29:38;;;;;;;0.60;0.38;;;18.70;62.10;;;;;;4955045;28;20483;-63
2023/09/23 12:32:07;;;;;;;1.90;0.55;;;18.70;61.50;;;;;;4953993;28;20093;-63
2023/09/23 12:34:33;;;;;;;0.60;0.32;;;18.80;61.00;;;;;;4947992;28;20510;-63
2023/09/23 12:37:03;;;;;;;3.88;1.05;;;18.80;61.20;;;;;;4955328;28;20046;-63
2023/09/23 12:39:28;;;;;;;0.60;0.35;;;18.80;61.00;;;;;;4955911;28;20039;-63
2023/09/23 12:41:54;;;;;;;0.77;0.47;;;18.90;60.10;;;;;;4955637;28;20035;-63
2023/09/23 12:44:20;;;;;;;1.30;0.40;;;19.00;60.80;;;;;;4956831;28;20392;-63
2023/09/23 12:46:46;;;;;;;1.00;0.30;;;18.90;60.40;;;;;;4953522;28;20046;-63
2023/09/23 12:49:12;;;;;;;1.73;0.38;;;18.90;60.30;;;;;;4956465;28;20036;-62